Time,TemperatureF,DewpointF,PressureIn,WindDirection,WindDirectionDegrees,WindSpeedMPH,WindSpeedGustMPH,Humidity,HourlyPrecipIn,Conditions,Clouds,dailyrainin,SoftwareType,DateUTC
2013-08-11 12:15:00,72.5,64.9,29.99,ESE,112,1.7,-999.0,77,-99.99,,,0.00,Acu-Link.com,2013-08-11 16:15:00,
2013-08-11 12:30:00,75.7,66.4,29.98,SE,135,3.7,-999.0,73,-99.99,,,0.00,Acu-Link.com,2013-08-11 16:30:00,
2013-08-11 12:45:00,77.5,66.1,29.98,SSE,157,1.7,-999.0,68,-99.99,,,0.00,Acu-Link.com,2013-08-11 16:45:00,
2013-08-11 13:01:00,76.1,66.4,29.96,NW,315,2.7,-999.0,72,-99.99,,,0.00,Acu-Link.com,2013-08-11 17:01:00,
2013-08-11 13:25:00,77.7,66.3,29.97,WSW,247,1.7,-999.0,68,-99.99,,,0.00,Acu-Link.com,2013-08-11 17:25:00,
2013-08-11 13:41:00,79.7,64.6,29.96,SSW,202,2.7,-999.0,60,-99.99,,,0.00,Acu-Link.com,2013-08-11 17:41:00,
2013-08-11 14:00:00,81.0,65.3,29.97,ESE,112,3.7,-999.0,59,-99.99,,,0.00,Acu-Link.com,2013-08-11 18:00:00,
2013-08-11 15:34:00,82.4,66.6,29.92,ESE,112,0.0,-999.0,59,-99.99,,,0.00,Acu-Link.com,2013-08-11 19:34:00,
2013-08-11 15:49:00,82.0,65.7,29.91,SE,135,7.8,-999.0,58,-99.99,,,0.00,Acu-Link.com,2013-08-11 19:49:00,
2013-08-11 16:05:00,81.1,65.4,29.91,SW,225,1.7,-999.0,59,-99.99,,,0.00,Acu-Link.com,2013-08-11 20:05:00,
2013-08-11 16:36:00,81.0,66.7,29.90,West,270,3.2,-999.0,62,-99.99,,,0.00,Acu-Link.com,2013-08-11 20:36:00,
2013-08-11 16:51:00,81.7,67.9,29.89,South,180,3.7,-999.0,63,-99.99,,,0.00,Acu-Link.com,2013-08-11 20:51:00,
2013-08-11 17:21:00,81.9,68.0,29.89,SSE,157,1.1,-999.0,63,-99.99,,,0.00,Acu-Link.com,2013-08-11 21:21:00,
2013-08-11 17:36:00,81.1,66.8,29.89,SSW,202,2.2,-999.0,62,-99.99,,,0.00,Acu-Link.com,2013-08-11 21:36:00,
2013-08-11 17:52:00,85.1,68.1,29.89,SE,135,2.2,-999.0,57,-99.99,,,0.00,Acu-Link.com,2013-08-11 21:52:00,
2013-08-11 18:07:00,85.6,69.1,29.89,WSW,247,1.1,-999.0,58,-99.99,,,0.00,Acu-Link.com,2013-08-11 22:07:00,
2013-08-11 18:22:00,82.8,68.4,29.88,SSE,157,1.7,-999.0,62,-99.99,,,0.00,Acu-Link.com,2013-08-11 22:22:00,
2013-08-11 18:37:00,85.5,68.5,29.88,West,270,2.2,-999.0,57,-99.99,,,0.00,Acu-Link.com,2013-08-11 22:37:00,
2013-08-11 18:52:00,86.0,68.4,29.88,SW,225,2.7,-999.0,56,-99.99,,,0.00,Acu-Link.com,2013-08-11 22:52:00,
2013-08-11 19:08:00,84.4,68.0,29.87,NW,315,0.0,-999.0,58,-99.99,,,0.00,Acu-Link.com,2013-08-11 23:08:00,
2013-08-11 19:23:00,81.0,67.7,29.89,SW,225,0.0,-999.0,64,-99.99,,,0.00,Acu-Link.com,2013-08-11 23:23:00,
2013-08-11 19:39:00,79.3,69.1,29.88,North,0,0.0,-999.0,71,-99.99,,,0.00,Acu-Link.com,2013-08-11 23:39:00,
2013-08-11 19:54:00,76.1,68.0,29.88,NNE,22,0.0,-999.0,76,-99.99,,,0.00,Acu-Link.com,2013-08-11 23:54:00,
2013-08-11 20:09:00,73.8,67.2,29.89,NNE,22,0.0,-999.0,80,-99.99,,,0.00,Acu-Link.com,2013-08-12 00:09:00,
2013-08-11 20:55:00,68.7,66.0,29.89,WSW,247,0.0,-999.0,91,-99.99,,,0.00,Acu-Link.com,2013-08-12 00:55:00,
2013-08-11 21:42:00,66.0,65.4,29.91,South,180,0.0,-999.0,98,-99.99,,,0.00,Acu-Link.com,2013-08-12 01:42:00,
2013-08-11 21:57:00,65.7,65.1,29.92,NNE,22,0.0,-999.0,98,-99.99,,,0.00,Acu-Link.com,2013-08-12 01:57:00,
2013-08-11 22:12:00,65.1,64.5,29.92,West,270,0.0,-999.0,98,-99.99,,,0.00,Acu-Link.com,2013-08-12 02:12:00,
2013-08-11 22:27:00,64.6,64.0,29.92,West,270,0.0,-999.0,98,-99.99,,,0.00,Acu-Link.com,2013-08-12 02:27:00,
2013-08-11 23:14:00,63.7,63.1,29.92,South,180,0.0,-999.0,98,-99.99,,,0.00,Acu-Link.com,2013-08-12 03:14:00,
2013-08-11 23:29:00,63.0,62.4,29.92,West,270,0.0,-999.0,98,-99.99,,,0.00,Acu-Link.com,2013-08-12 03:29:00,
2013-08-11 23:44:00,62.6,62.0,29.92,NE,45,0.0,-999.0,98,-99.99,,,0.00,Acu-Link.com,2013-08-12 03:44:00,
2013-08-11 23:59:00,61.9,61.3,29.92,SW,225,0.0,-999.0,98,-99.99,,,0.00,Acu-Link.com,2013-08-12 03:59:00,